Time;durP1;ratioP1;P1;durP2;ratioP2;P2;SDS_P1;SDS_P2;PMS_P1;PMS_P2;Temp;Humidity;BMP_temperature;BMP_pressure;BME280_temperature;BME280_humidity;BME280_pressure;Samples;Min_cycle;Max_cycle;Signal;HPM_P1;HPM_P2
2021/08/12 00:01:57;;;;;;;0.10;0.10;;;;;;;24.29;58.69;99493.16;5151457;27;20054;-64
2021/08/12 00:04:43;;;;;;;0.20;0.20;;;;;;;24.29;58.72;99500.31;5151247;27;20233;-65
2021/08/12 00:07:29;;;;;;;0.10;0.10;;;;;;;24.20;58.69;99482.72;5151257;27;20039;-63
2021/08/12 00:10:15;;;;;;;0.10;0.10;;;;;;;24.28;58.64;99487.97;5150857;27;20078;-63
2021/08/12 00:12:41;;;;;;;0.00;0.00;;;;;;;24.30;58.60;99477.97;5150797;27;20489;-63
2021/08/12 00:15:08;;;;;;;0.10;0.10;;;;;;;24.26;58.65;99458.81;5150665;27;20417;-64
2021/08/12 00:17:34;;;;;;;0.10;0.10;;;;;;;24.32;58.63;99462.59;5132714;27;20419;-64
2021/08/12 00:20:00;;;;;;;0.10;0.10;;;;;;;24.29;58.62;99458.47;5151097;27;20049;-64
2021/08/12 00:22:26;;;;;;;0.10;0.10;;;;;;;24.32;58.67;99457.25;5150862;27;20050;-64
2021/08/12 00:24:52;;;;;;;0.13;0.13;;;;;;;24.27;58.74;99440.97;5132626;27;20065;-65
2021/08/12 00:27:18;;;;;;;0.47;0.47;;;;;;;24.32;58.68;99430.56;5150731;27;20038;-65
2021/08/12 00:29:49;;;;;;;0.10;0.10;;;;;;;24.26;58.63;99417.97;5150923;27;20095;-65
2021/08/12 00:32:15;;;;;;;0.20;0.20;;;;;;;24.29;58.67;99422.94;5132316;27;20103;-65
2021/08/12 00:34:41;;;;;;;0.28;0.28;;;;;;;24.29;58.81;99433.59;5150924;27;20129;-64
2021/08/12 00:37:08;;;;;;;0.10;0.10;;;;;;;24.32;58.60;99430.56;5132292;27;20050;-65
2021/08/12 00:39:34;;;;;;;0.55;0.55;;;;;;;24.31;58.56;99444.94;5115545;27;20502;-64
2021/08/12 00:42:05;;;;;;;0.10;0.10;;;;;;;24.30;58.76;99438.78;5132425;27;20520;-64
2021/08/12 00:44:32;;;;;;;0.10;0.10;;;;;;;24.29;58.73;99446.94;5132156;27;20050;-64
2021/08/12 00:46:58;;;;;;;0.20;0.20;;;;;;;24.26;58.78;99418.78;5132469;27;20074;-64
2021/08/12 00:49:29;;;;;;;0.10;0.10;;;;;;;24.21;58.76;99413.16;5150649;27;20076;-64
2021/08/12 00:51:56;;;;;;;0.35;0.20;;;;;;;24.29;58.83;99407.75;5132364;27;20053;-64
2021/08/12 00:54:23;;;;;;;0.10;0.10;;;;;;;24.29;58.75;99397.09;5132362;27;20046;-65
2021/08/12 00:56:49;;;;;;;0.10;0.10;;;;;;;24.28;58.74;99397.25;5150897;27;20421;-64
2021/08/12 00:59:15;;;;;;;0.10;0.10;;;;;;;24.27;58.72;99409.78;5115058;27;20180;-64
2021/08/12 01:01:42;;;;;;;0.10;0.10;;;;;;;24.15;58.84;99386.38;5132233;27;20462;-64
2021/08/12 01:04:29;;;;;;;0.10;0.10;;;;;;;24.22;58.88;99411.31;5134920;27;20206;-64
2021/08/12 01:07:26;;;;;;;0.10;0.10;;;;;;;24.24;58.90;99410.16;5134975;27;20104;-64
2021/08/12 01:10:14;;;;;;;0.10;0.10;;;;;;;24.23;59.01;99419.16;5150313;27;20086;-65
2021/08/12 01:13:13;;;;;;;0.10;0.10;;;;;;;24.22;58.95;99408.66;5135176;27;20137;-64
2021/08/12 01:16:00;;;;;;;0.20;0.20;;;;;;;24.21;58.96;99420.38;5121160;27;20045;-65
2021/08/12 01:18:56;;;;;;;0.10;0.10;;;;;;;24.21;59.01;99431.03;5107290;27;20126;-67
2021/08/12 01:22:00;;;;;;;0.00;0.00;;;;;;;24.21;58.96;99428.38;5107716;27;20188;-67
2021/08/12 01:24:48;;;;;;;0.10;0.10;;;;;;;24.25;59.12;99426.97;5124390;27;20119;-67
2021/08/12 01:27:36;;;;;;;0.10;0.10;;;;;;;24.28;58.88;99422.09;5111266;27;20035;-66
2021/08/12 01:30:25;;;;;;;0.10;0.10;;;;;;;24.28;58.78;99407.94;5138421;27;20046;-67
2021/08/12 01:33:54;;;;;;;0.10;0.10;;;;;;;24.30;58.84;99405.91;5110643;27;20497;-68
2021/08/12 01:36:40;;;;;;;0.10;0.10;;;;;;;24.31;58.79;99396.91;5111904;27;20047;-67
2021/08/12 01:39:26;;;;;;;0.10;0.10;;;;;;;24.31;58.79;99392.38;5124420;27;20129;-67
2021/08/12 01:42:12;;;;;;;0.10;0.10;;;;;;;24.17;58.90;99363.03;5124373;27;20103;-67
2021/08/12 01:44:59;;;;;;;0.22;0.22;;;;;;;24.30;58.82;99389.91;5138447;27;20115;-67
2021/08/12 01:47:45;;;;;;;0.10;0.10;;;;;;;24.28;58.77;99381.25;5138504;27;20481;-65
2021/08/12 01:50:34;;;;;;;0.10;0.10;;;;;;;24.21;58.89;99370.47;5110408;27;20529;-65
2021/08/12 01:53:21;;;;;;;0.10;0.10;;;;;;;24.28;59.05;99374.06;5110112;27;20042;-65
2021/08/12 01:56:07;;;;;;;0.10;0.10;;;;;;;24.25;58.99;99362.94;5138282;27;20039;-66
2021/08/12 01:58:55;;;;;;;0.10;0.10;;;;;;;24.22;59.07;99348.13;5138379;27;20517;-65
2021/08/12 02:01:46;;;;;;;0.10;0.10;;;;;;;24.26;59.01;99351.25;5138125;27;20129;-65
2021/08/12 02:04:32;;;;;;;0.00;0.00;;;;;;;24.25;59.04;99362.94;5124504;27;20679;-66
2021/08/12 02:07:18;;;;;;;0.10;0.10;;;;;;;24.22;59.01;99355.28;5123513;27;20043;-65
2021/08/12 02:10:05;;;;;;;0.10;0.10;;;;;;;24.25;59.01;99355.75;5123809;27;20425;-65
2021/08/12 02:12:51;;;;;;;0.20;0.20;;;;;;;24.24;59.21;99358.63;5138131;27;20047;-65
2021/08/12 02:15:37;;;;;;;0.10;0.10;;;;;;;24.15;59.05;99352.53;5137363;27;20057;-65
2021/08/12 02:18:23;;;;;;;0.10;0.10;;;;;;;24.17;59.25;99361.19;5137662;27;20492;-65
2021/08/12 02:21:12;;;;;;;0.10;0.10;;;;;;;24.24;59.15;99375.47;5123541;27;20516;-65
2021/08/12 02:24:06;;;;;;;0.22;0.22;;;;;;;24.25;59.21;99376.28;5137774;27;20050;-65
2021/08/12 02:26:58;;;;;;;0.28;0.28;;;;;;;24.27;59.12;99384.94;5137746;27;20127;-64
2021/08/12 02:29:47;;;;;;;0.10;0.10;;;;;;;24.21;59.17;99373.13;5123736;27;20516;-64
2021/08/12 02:32:33;;;;;;;0.17;0.17;;;;;;;24.26;59.10;99372.59;5137381;27;20047;-63
2021/08/12 02:35:19;;;;;;;0.10;0.10;;;;;;;24.25;59.25;99365.59;5137269;27;20346;-63
2021/08/12 02:38:06;;;;;;;0.10;0.10;;;;;;;24.28;59.04;99360.72;5109685;27;20516;-65
2021/08/12 02:40:53;;;;;;;0.10;0.10;;;;;;;24.28;59.11;99358.06;5137512;27;20055;-63
2021/08/12 02:43:39;;;;;;;0.10;0.10;;;;;;;24.32;59.10;99366.53;5137024;27;20046;-64
2021/08/12 02:46:26;;;;;;;0.10;0.10;;;;;;;24.27;59.02;99356.41;5123794;27;20046;-62
2021/08/12 02:49:13;;;;;;;0.10;0.10;;;;;;;24.33;59.14;99369.03;5095234;27;20049;-60
2021/08/12 02:51:59;;;;;;;0.10;0.10;;;;;;;24.36;59.05;99359.81;5137561;27;20509;-65
2021/08/12 02:54:46;;;;;;;0.10;0.10;;;;;;;24.38;58.96;99355.13;5137224;27;20071;-65
2021/08/12 02:57:32;;;;;;;0.10;0.10;;;;;;;24.38;58.76;99347.94;5137185;27;20122;-66
2021/08/12 03:00:18;;;;;;;0.10;0.10;;;;;;;24.39;58.87;99346.09;5136639;27;20047;-66
2021/08/12 03:03:05;;;;;;;0.10;0.10;;;;;;;24.37;58.92;99342.81;5136991;27;20447;-64
2021/08/12 03:05:52;;;;;;;0.10;0.10;;;;;;;24.38;59.02;99344.44;5122818;27;20035;-64
2021/08/12 03:08:38;;;;;;;0.10;0.10;;;;;;;24.39;58.55;99346.09;5136812;27;20066;-64
2021/08/12 03:11:25;;;;;;;0.20;0.20;;;;;;;24.41;58.86;99338.72;5136423;27;20049;-65
2021/08/12 03:14:11;;;;;;;0.10;0.10;;;;;;;24.40;58.89;99347.75;5136810;27;20516;-65
2021/08/12 03:16:58;;;;;;;0.10;0.10;;;;;;;24.43;59.04;99342.06;5122554;27;20531;-66
2021/08/12 03:19:45;;;;;;;0.10;0.10;;;;;;;24.43;58.95;99358.06;5136880;27;20137;-66
2021/08/12 03:22:31;;;;;;;0.73;0.73;;;;;;;24.44;59.02;99343.72;5136601;27;20047;-67
2021/08/12 03:25:17;;;;;;;0.10;0.10;;;;;;;24.44;59.14;99349.06;5136500;27;20054;-65
2021/08/12 03:28:03;;;;;;;0.10;0.10;;;;;;;24.43;59.08;99346.56;5151922;27;20099;-66
2021/08/12 03:30:49;;;;;;;0.10;0.10;;;;;;;24.45;58.99;99355.19;5122401;27;20465;-64
2021/08/12 03:33:35;;;;;;;0.10;0.10;;;;;;;24.47;59.07;99362.03;5136242;27;20443;-64
2021/08/12 03:36:21;;;;;;;0.10;0.10;;;;;;;24.48;58.90;99355.66;5135955;27;20049;-64
2021/08/12 03:39:07;;;;;;;0.17;0.17;;;;;;;24.44;58.92;99345.56;5151759;27;20081;-63
2021/08/12 03:41:53;;;;;;;0.10;0.10;;;;;;;24.51;58.72;99370.50;5136220;27;20043;-63
2021/08/12 03:44:39;;;;;;;0.10;0.10;;;;;;;24.54;58.67;99365.59;5135878;27;20118;-64
2021/08/12 03:47:25;;;;;;;0.10;0.10;;;;;;;24.52;58.56;99362.28;5135051;27;20078;-64
2021/08/12 03:50:11;;;;;;;0.10;0.10;;;;;;;24.59;58.50;99368.56;5121770;27;20201;-65
2021/08/12 03:52:57;;;;;;;0.10;0.10;;;;;;;24.63;58.31;99369.00;5107729;27;20523;-65
2021/08/12 03:55:43;;;;;;;0.10;0.10;;;;;;;24.56;58.23;99352.91;5151199;27;20038;-65
2021/08/12 03:58:29;;;;;;;0.10;0.10;;;;;;;24.69;58.08;99371.78;5151097;27;20039;-63
2021/08/12 04:01:16;;;;;;;0.15;0.15;;;;;;;24.72;57.96;99375.91;5135722;27;20046;-63
2021/08/12 04:04:03;;;;;;;0.10;0.10;;;;;;;24.73;57.98;99375.72;5151367;27;20092;-64
2021/08/12 04:06:49;;;;;;;0.20;0.20;;;;;;;24.73;57.71;99381.06;5135903;27;20102;-66
2021/08/12 04:09:35;;;;;;;0.10;0.10;;;;;;;24.73;57.93;99385.56;5121302;27;20051;-65
2021/08/12 04:12:21;;;;;;;0.10;0.10;;;;;;;24.73;58.14;99394.41;5135308;27;20418;-65
2021/08/12 04:15:07;;;;;;;0.20;0.20;;;;;;;24.72;58.25;99394.59;5135426;27;20035;-64
2021/08/12 04:17:53;;;;;;;0.10;0.10;;;;;;;24.70;58.14;99397.47;5151167;27;20050;-61
2021/08/12 04:20:39;;;;;;;0.20;0.20;;;;;;;24.69;58.45;99394.97;5135348;27;20466;-64
2021/08/12 04:23:24;;;;;;;0.10;0.10;;;;;;;24.65;58.58;99383.81;5135263;27;20074;-61
2021/08/12 04:26:10;;;;;;;0.10;0.10;;;;;;;24.64;58.45;99379.50;5135562;27;20519;-61
2021/08/12 04:28:57;;;;;;;0.10;0.10;;;;;;;24.60;58.53;99375.56;5135446;27;20493;-61
2021/08/12 04:31:43;;;;;;;0.10;0.10;;;;;;;24.66;58.67;99379.31;5135334;27;20050;-61
2021/08/12 04:34:29;;;;;;;0.10;0.10;;;;;;;24.61;58.75;99371.84;5135125;27;20141;-60
2021/08/12 04:37:14;;;;;;;0.38;0.38;;;;;;;24.64;58.56;99355.47;5135421;27;20070;-60
2021/08/12 04:40:01;;;;;;;0.10;0.10;;;;;;;24.67;58.47;99360.44;5135627;27;20096;-60
2021/08/12 04:42:49;;;;;;;0.10;0.10;;;;;;;24.67;58.27;99339.06;5135426;27;20042;-60
2021/08/12 04:45:35;;;;;;;0.10;0.10;;;;;;;24.70;58.19;99324.53;5150618;27;20424;-60
2021/08/12 04:48:21;;;;;;;0.10;0.10;;;;;;;24.74;58.04;99312.44;5150698;27;20452;-60
2021/08/12 04:51:06;;;;;;;0.10;0.10;;;;;;;24.78;57.99;99297.72;5135461;27;20424;-60
2021/08/12 04:53:53;;;;;;;0.10;0.10;;;;;;;24.70;57.71;99277.31;5135706;27;20421;-60
2021/08/12 04:56:39;;;;;;;0.20;0.20;;;;;;;24.83;57.90;99290.84;5135510;27;20516;-61
2021/08/12 04:59:06;;;;;;;0.10;0.10;;;;;;;24.77;58.06;99272.03;5154060;27;20046;-61
2021/08/12 05:01:32;;;;;;;0.10;0.10;;;;;;;24.81;57.88;99273.28;5135996;27;20115;-60
2021/08/12 05:03:58;;;;;;;0.10;0.10;;;;;;;24.82;57.72;99275.81;5136262;27;20039;-61
2021/08/12 05:06:24;;;;;;;0.10;0.10;;;;;;;24.88;57.64;99277.72;5136321;27;20054;-64
2021/08/12 05:08:50;;;;;;;0.10;0.10;;;;;;;24.93;57.50;99277.16;5137099;27;20595;-63
2021/08/12 05:11:16;;;;;;;0.10;0.10;;;;;;;24.96;57.31;99270.63;5154515;27;20459;-62
2021/08/12 05:13:42;;;;;;;0.10;0.10;;;;;;;24.98;57.22;99252.53;5135735;27;20488;-63
2021/08/12 05:16:10;;;;;;;0.10;0.10;;;;;;;25.07;57.38;99248.72;5119032;27;20042;-62
2021/08/12 05:18:36;;;;;;;0.10;0.10;;;;;;;25.13;57.13;99238.09;5154338;27;20558;-62
2021/08/12 05:21:02;;;;;;;0.30;0.30;;;;;;;25.12;56.94;99223.09;5154376;27;20058;-61
2021/08/12 05:23:29;;;;;;;0.10;0.10;;;;;;;25.23;56.79;99233.25;5135658;27;20043;-62
2021/08/12 05:25:55;;;;;;;0.30;0.30;;;;;;;25.29;56.81;99242.34;5154380;27;20133;-61
2021/08/12 05:28:21;;;;;;;0.20;0.20;;;;;;;25.20;56.47;99232.81;5154299;27;20045;-62
2021/08/12 05:30:48;;;;;;;0.20;0.20;;;;;;;25.33;56.58;99251.63;5135523;27;20544;-63
2021/08/12 05:33:15;;;;;;;0.10;0.10;;;;;;;25.37;56.34;99245.72;5135729;27;20042;-66
2021/08/12 05:35:42;;;;;;;0.10;0.10;;;;;;;25.44;55.94;99237.72;5119394;27;20050;-63
2021/08/12 05:38:09;;;;;;;0.10;0.10;;;;;;;25.53;55.89;99225.91;5136396;27;20050;-66
2021/08/12 05:40:37;;;;;;;0.22;0.22;;;;;;;25.65;55.36;99226.19;5116029;27;20050;-64
2021/08/12 05:43:03;;;;;;;0.10;0.10;;;;;;;25.66;55.42;99211.78;5154487;27;20043;-64
2021/08/12 05:45:30;;;;;;;0.20;0.20;;;;;;;25.84;54.77;99226.31;5118410;27;20043;-66
2021/08/12 05:47:57;;;;;;;0.10;0.10;;;;;;;26.02;54.30;99222.28;5118639;27;20058;-63
2021/08/12 05:50:23;;;;;;;1.67;0.47;;;;;;;26.18;53.79;99243.38;5135072;27;20038;-65
2021/08/12 05:52:50;;;;;;;0.10;0.10;;;;;;;25.96;53.48;99174.91;5135121;27;20051;-65
2021/08/12 05:55:16;;;;;;;0.10;0.10;;;;;;;26.49;53.06;99230.34;5117852;27;20042;-64
2021/08/12 05:57:42;;;;;;;0.10;0.10;;;;;;;26.72;52.64;99233.50;5135405;27;20046;-64
2021/08/12 06:00:09;;;;;;;0.20;0.20;;;;;;;26.74;52.37;99228.75;5136272;27;20130;-64
2021/08/12 06:02:48;;;;;;;0.10;0.10;;;;;;;26.82;52.01;99241.16;5120626;27;20094;-66
2021/08/12 06:05:25;;;;;;;0.10;0.10;;;;;;;27.00;51.54;99248.59;5119934;27;20049;-65
2021/08/12 06:07:52;;;;;;;;;;;;;;;27.13;51.52;99248.63;5119823;27;20470;-61
2021/08/12 06:10:21;;;;;;;0.20;0.20;;;;;;;27.32;51.05;99239.78;5134509;27;20355;-63
2021/08/12 06:12:47;;;;;;;0.10;0.10;;;;;;;27.29;51.22;99234.84;5118585;27;20242;-65
2021/08/12 06:15:14;;;;;;;0.10;0.10;;;;;;;27.39;50.83;99260.19;5154138;27;20050;-63
2021/08/12 06:17:42;;;;;;;0.10;0.10;;;;;;;27.48;50.48;99271.59;5118588;27;20114;-64
2021/08/12 06:20:10;;;;;;;0.10;0.10;;;;;;;27.68;50.12;99284.97;5118719;27;20528;-60
2021/08/12 06:22:36;;;;;;;0.10;0.10;;;;;;;27.76;49.61;99303.53;5118355;27;20050;-63
2021/08/12 06:25:04;;;;;;;0.10;0.10;;;;;;;27.56;49.98;99303.53;5135286;27;20111;-62
2021/08/12 06:27:35;;;;;;;0.10;0.10;;;;;;;27.25;50.72;99309.50;5100872;27;20064;-64
2021/08/12 06:30:07;;;;;;;0.10;0.10;;;;;;;26.89;51.77;99320.56;5135608;27;20066;-62
2021/08/12 06:32:37;;;;;;;0.10;0.10;;;;;;;26.65;52.63;99334.44;5135340;27;20039;-65
2021/08/12 06:35:11;;;;;;;0.10;0.10;;;;;;;26.39;52.97;99328.97;5135664;27;20051;-65
2021/08/12 06:37:56;;;;;;;0.10;0.10;;;;;;;26.19;53.92;99315.47;5134528;27;20047;-63
2021/08/12 06:40:24;;;;;;;0.10;0.10;;;;;;;26.03;54.49;99305.03;5118101;27;20077;-66
2021/08/12 06:42:52;;;;;;;0.20;0.20;;;;;;;25.97;54.94;99299.66;5153172;27;20133;-64
2021/08/12 06:45:21;;;;;;;0.43;0.35;;;;;;;26.01;54.86;99296.41;5135417;27;20155;-66
2021/08/12 06:47:49;;;;;;;0.10;0.10;;;;;;;25.98;55.08;99298.63;5134299;27;20046;-63
2021/08/12 06:50:16;;;;;;;0.25;0.25;;;;;;;25.96;55.41;99298.81;5134471;27;20046;-62
2021/08/12 06:52:42;;;;;;;0.03;0.03;;;;;;;26.03;54.69;99301.53;5152964;27;20058;-67
2021/08/12 06:55:10;;;;;;;0.10;0.10;;;;;;;26.11;54.73;99296.03;5134721;27;20487;-63
2021/08/12 06:57:36;;;;;;;0.17;0.17;;;;;;;26.23;54.17;99302.50;5134066;27;20059;-65
2021/08/12 07:00:04;;;;;;;0.00;0.00;;;;;;;26.26;53.97;99310.97;5134883;27;20125;-66
2021/08/12 07:02:31;;;;;;;0.10;0.10;;;;;;;26.30;53.86;99319.44;5117775;27;20050;-65
2021/08/12 07:04:57;;;;;;;0.17;0.17;;;;;;;26.34;53.86;99312.66;5117712;27;20588;-66
2021/08/12 07:07:28;;;;;;;0.20;0.20;;;;;;;26.40;53.51;99315.38;5135158;27;20065;-66
2021/08/12 07:09:54;;;;;;;0.20;0.20;;;;;;;26.51;53.52;99330.03;5101241;27;20054;-64
2021/08/12 07:12:23;;;;;;;0.20;0.20;;;;;;;26.57;53.32;99331.91;5134338;27;20050;-65
2021/08/12 07:14:50;;;;;;;0.20;0.20;;;;;;;26.60;52.92;99323.50;5152646;27;20050;-63
2021/08/12 07:17:19;;;;;;;0.17;0.17;;;;;;;26.62;53.17;99316.09;5134576;27;20433;-66
2021/08/12 07:19:57;;;;;;;0.10;0.10;;;;;;;26.69;52.73;99292.00;5133699;27;20541;-63
2021/08/12 07:22:25;;;;;;;0.13;0.13;;;;;;;26.76;52.88;99282.13;5152650;27;20081;-64
2021/08/12 07:24:51;;;;;;;0.10;0.10;;;;;;;26.80;52.40;99265.44;5152623;27;20124;-62
2021/08/12 07:27:18;;;;;;;0.15;0.15;;;;;;;26.70;52.76;99240.09;5134679;27;20047;-63
2021/08/12 07:29:44;;;;;;;0.17;0.17;;;;;;;26.79;52.71;99266.50;5133849;27;20590;-65
2021/08/12 07:32:10;;;;;;;0.38;0.25;;;;;;;26.72;52.54;99268.31;5117328;27;20085;-65
2021/08/12 07:34:44;;;;;;;0.10;0.10;;;;;;;26.71;53.08;99285.41;5133783;27;20050;-60
2021/08/12 07:37:12;;;;;;;0.30;0.30;;;;;;;26.60;53.11;99263.75;5152462;27;20152;-66
2021/08/12 07:39:38;;;;;;;0.10;0.10;;;;;;;26.61;53.26;99274.25;5152880;27;20045;-64
2021/08/12 07:42:18;;;;;;;0.10;0.10;;;;;;;26.57;53.23;99274.88;5134308;27;20133;-62
2021/08/12 07:44:46;;;;;;;0.10;0.10;;;;;;;26.55;53.21;99277.75;5100808;27;20049;-66
2021/08/12 07:47:13;;;;;;;0.15;0.15;;;;;;;26.52;53.19;99278.13;5134064;27;20046;-63
2021/08/12 07:49:40;;;;;;;0.20;0.20;;;;;;;26.54;53.10;99273.41;5116586;27;20054;-59
2021/08/12 07:52:07;;;;;;;0.10;0.10;;;;;;;26.56;53.45;99274.03;5134266;27;20059;-65
2021/08/12 07:54:34;;;;;;;0.20;0.20;;;;;;;26.56;53.48;99263.31;5132951;27;20046;-65
2021/08/12 07:57:01;;;;;;;0.20;0.20;;;;;;;26.55;53.07;99259.00;5151504;27;20482;-64
2021/08/12 07:59:27;;;;;;;0.10;0.10;;;;;;;26.59;53.08;99265.59;5151374;27;20489;-63
2021/08/12 08:01:53;;;;;;;0.03;0.03;;;;;;;26.63;53.40;99290.97;5151138;27;20112;-63
2021/08/12 08:04:19;;;;;;;0.30;0.30;;;;;;;26.53;53.12;99278.97;5151443;27;20039;-64
2021/08/12 08:06:47;;;;;;;0.20;0.20;;;;;;;26.60;53.30;99303.94;5150922;27;20071;-64
2021/08/12 08:09:12;;;;;;;0.10;0.10;;;;;;;26.58;53.12;99312.16;5151369;27;20130;-64
2021/08/12 08:11:38;;;;;;;0.03;0.03;;;;;;;26.47;53.11;99288.63;5151063;27;20183;-64
2021/08/12 08:14:09;;;;;;;0.20;0.20;;;;;;;26.64;53.03;99316.69;5133087;27;20167;-64
2021/08/12 08:16:35;;;;;;;0.10;0.10;;;;;;;26.70;53.16;99315.09;5150592;27;20528;-64
2021/08/12 08:19:01;;;;;;;0.20;0.20;;;;;;;26.73;52.88;99295.94;5132754;27;20047;-64
2021/08/12 08:21:28;;;;;;;0.10;0.10;;;;;;;26.73;52.90;99286.03;5151060;27;20042;-64
2021/08/12 08:23:54;;;;;;;0.17;0.17;;;;;;;26.78;52.57;99302.34;5151084;27;20513;-64
2021/08/12 08:26:21;;;;;;;0.20;0.20;;;;;;;26.74;52.52;99276.97;5132695;27;20528;-64
2021/08/12 08:28:47;;;;;;;0.13;0.13;;;;;;;26.87;52.37;99298.47;5132354;27;20054;-64
2021/08/12 08:31:14;;;;;;;0.10;0.10;;;;;;;26.78;52.64;99286.25;5132594;27;20129;-64
2021/08/12 08:33:42;;;;;;;0.10;0.10;;;;;;;26.86;52.51;99314.75;5153236;27;20042;-64
2021/08/12 08:36:07;;;;;;;0.10;0.10;;;;;;;26.78;52.62;99329.13;5155328;27;20046;-64
2021/08/12 08:38:33;;;;;;;0.10;0.10;;;;;;;26.68;53.21;99331.34;5155285;27;20041;-64
2021/08/12 08:41:01;;;;;;;0.10;0.10;;;;;;;26.56;53.43;99332.97;5154966;27;20055;-64
2021/08/12 08:43:27;;;;;;;0.17;0.17;;;;;;;26.46;53.46;99332.50;5155133;27;20068;-64
2021/08/12 08:45:53;;;;;;;0.10;0.10;;;;;;;26.38;53.76;99335.31;5136197;27;20047;-63
2021/08/12 08:48:19;;;;;;;0.10;0.10;;;;;;;26.30;54.33;99336.34;5136630;27;20043;-63
2021/08/12 08:50:45;;;;;;;0.10;0.10;;;;;;;26.27;54.15;99319.84;5136276;27;20062;-65
2021/08/12 08:53:18;;;;;;;0.10;0.10;;;;;;;26.35;54.25;99327.69;5154958;27;20598;-64
2021/08/12 08:55:45;;;;;;;0.10;0.10;;;;;;;26.38;54.04;99324.63;5136190;27;20046;-63
2021/08/12 08:58:11;;;;;;;0.30;0.30;;;;;;;26.38;54.05;99312.06;5154911;27;20505;-64
2021/08/12 09:00:37;;;;;;;0.10;0.10;;;;;;;26.42;54.12;99320.53;5154506;27;20038;-64
2021/08/12 09:03:03;;;;;;;0.05;0.05;;;;;;;26.38;54.16;99316.59;5136237;27;20047;-64
2021/08/12 09:05:29;;;;;;;0.10;0.10;;;;;;;26.36;54.36;99315.97;5119143;27;20066;-64
2021/08/12 09:07:55;;;;;;;0.20;0.20;;;;;;;26.30;54.30;99319.44;5154500;27;20047;-64
2021/08/12 09:10:21;;;;;;;0.10;0.10;;;;;;;26.23;54.56;99316.72;5118847;27;20049;-63
2021/08/12 09:12:48;;;;;;;0.10;0.10;;;;;;;26.03;54.68;99296.19;5135843;27;20413;-63
2021/08/12 09:15:20;;;;;;;0.15;0.15;;;;;;;26.10;54.71;99299.72;5135856;27;20057;-62
2021/08/12 09:17:48;;;;;;;0.10;0.10;;;;;;;26.10;54.81;99300.56;5154198;27;20047;-64
2021/08/12 09:20:15;;;;;;;0.20;0.20;;;;;;;26.11;54.97;99317.44;5154748;27;20047;-59
2021/08/12 09:23:01;;;;;;;0.10;0.10;;;;;;;26.13;54.93;99339.47;5135582;27;20054;-58
2021/08/12 09:25:48;;;;;;;0.10;0.10;;;;;;;26.12;54.96;99338.66;5135946;27;20413;-59
2021/08/12 09:28:15;;;;;;;0.50;0.50;;;;;;;26.15;54.91;99340.94;5154430;27;20474;-61
2021/08/12 09:31:06;;;;;;;0.10;0.10;;;;;;;26.19;55.05;99344.06;5153804;27;20111;-60
2021/08/12 09:33:39;;;;;;;0.20;0.20;;;;;;;26.17;54.70;99332.75;5142303;27;20138;-59
2021/08/12 09:36:26;;;;;;;0.10;0.10;;;;;;;26.28;54.48;99324.97;5154105;27;20074;-61
2021/08/12 09:39:24;;;;;;;0.10;0.10;;;;;;;26.36;54.44;99316.78;5136523;27;20051;-59
2021/08/12 09:41:53;;;;;;;0.17;0.17;;;;;;;26.49;53.72;99321.38;5081532;27;20047;-59
2021/08/12 09:44:33;;;;;;;0.10;0.10;;;;;;;26.62;54.05;99329.47;5134176;27;20068;-59
2021/08/12 09:47:00;;;;;;;0.30;0.30;;;;;;;26.68;54.15;99323.31;5153347;27;20039;-60
2021/08/12 09:49:38;;;;;;;0.10;0.10;;;;;;;26.73;53.83;99322.72;5153796;27;20050;-60
2021/08/12 09:52:26;;;;;;;0.25;0.25;;;;;;;26.79;53.80;99332.63;5153403;27;20061;-60
2021/08/12 09:55:00;;;;;;;0.10;0.10;;;;;;;26.83;53.38;99333.94;5135021;27;20077;-59
2021/08/12 09:57:34;;;;;;;0.10;0.10;;;;;;;26.86;53.13;99320.94;5153667;27;20054;-61
2021/08/12 10:00:00;;;;;;;0.15;0.15;;;;;;;26.88;53.13;99318.88;5153405;27;20049;-60
2021/08/12 10:02:30;;;;;;;0.22;0.22;;;;;;;26.90;52.85;99314.13;5135745;27;20516;-64
2021/08/12 10:05:05;;;;;;;;;;;;;;;26.99;52.66;99324.69;5135305;27;20560;-65
2021/08/12 10:07:38;;;;;;;0.10;0.10;;;;;;;26.99;53.03;99327.38;5153509;27;19922;-65
2021/08/12 10:10:23;;;;;;;0.10;0.10;;;;;;;26.96;52.70;99328.59;5153290;27;20057;-64
2021/08/12 10:12:54;;;;;;;0.47;0.47;;;;;;;26.81;53.20;99315.34;5153146;27;20081;-62
2021/08/12 10:15:25;;;;;;;0.10;0.10;;;;;;;26.88;53.70;99329.59;5153153;27;20053;-63
2021/08/12 10:17:52;;;;;;;0.20;0.20;;;;;;;26.83;53.60;99324.00;5152957;27;20054;-64
2021/08/12 10:20:27;;;;;;;0.20;0.20;;;;;;;26.83;53.11;99342.75;5153603;27;20047;-63
2021/08/12 10:22:59;;;;;;;0.32;0.32;;;;;;;26.83;53.46;99342.75;5154134;27;20058;-65
2021/08/12 10:25:26;;;;;;;0.30;0.30;;;;;;;26.85;53.13;99345.25;5118257;27;20145;-64
2021/08/12 10:27:54;;;;;;;0.20;0.20;;;;;;;26.89;52.93;99344.66;5134399;27;20047;-65
2021/08/12 10:30:20;;;;;;;0.10;0.10;;;;;;;26.96;53.20;99338.50;5153271;27;20062;-65
2021/08/12 10:32:55;;;;;;;0.22;0.22;;;;;;;27.06;52.66;99337.06;5152796;27;20520;-62
2021/08/12 10:35:31;;;;;;;0.10;0.10;;;;;;;27.21;52.47;99336.91;5101555;27;20150;-65
2021/08/12 10:38:00;;;;;;;0.10;0.10;;;;;;;27.35;51.96;99338.59;5116984;27;20068;-63
2021/08/12 10:40:31;;;;;;;0.10;0.10;;;;;;;27.49;51.47;99334.09;5134338;27;20049;-63
2021/08/12 10:42:58;;;;;;;0.10;0.10;;;;;;;27.59;51.02;99340.69;5152469;27;20135;-64
2021/08/12 10:45:24;;;;;;;0.20;0.20;;;;;;;27.64;51.04;99337.38;5134654;27;20057;-64
2021/08/12 10:47:54;;;;;;;0.10;0.10;;;;;;;27.68;50.82;99347.47;5116660;27;20054;-64
2021/08/12 10:50:23;;;;;;;0.93;0.50;;;;;;;27.65;51.08;99349.78;5152666;27;20479;-66
2021/08/12 10:53:06;;;;;;;0.17;0.17;;;;;;;27.59;50.88;99346.03;5134009;27;20513;-65
2021/08/12 10:55:35;;;;;;;0.10;0.10;;;;;;;27.55;51.35;99339.47;5152364;27;20054;-59
2021/08/12 10:58:26;;;;;;;0.20;0.20;;;;;;;27.54;51.20;99348.53;5133584;27;20051;-59
2021/08/12 11:00:56;;;;;;;0.10;0.10;;;;;;;27.53;51.25;99343.34;5152415;27;20066;-65
2021/08/12 11:03:35;;;;;;;0.10;0.10;;;;;;;27.53;51.31;99357.59;5152697;27;20540;-64
2021/08/12 11:06:11;;;;;;;0.30;0.30;;;;;;;27.57;51.06;99358.03;5133807;27;20055;-62
2021/08/12 11:08:49;;;;;;;0.30;0.30;;;;;;;27.64;51.17;99359.69;5152273;27;20070;-62
2021/08/12 11:11:21;;;;;;;0.10;0.10;;;;;;;27.76;50.76;99358.03;5152315;27;20047;-62
2021/08/12 11:13:52;;;;;;;0.10;0.10;;;;;;;27.95;50.28;99356.34;5151883;27;20050;-64
2021/08/12 11:16:19;;;;;;;0.10;0.10;;;;;;;28.08;49.77;99345.63;5152463;27;20045;-64
2021/08/12 11:18:45;;;;;;;0.20;0.20;;;;;;;28.28;49.42;99359.03;5133511;27;20458;-64
2021/08/12 11:21:30;;;;;;;0.75;0.75;;;;;;;28.43;49.37;99360.47;5152084;27;20137;-64
2021/08/12 11:23:56;;;;;;;0.10;0.10;;;;;;;28.53;48.86;99365.38;5151936;27;20038;-64
2021/08/12 11:26:22;;;;;;;0.10;0.10;;;;;;;28.58;48.78;99362.88;5152180;27;20135;-64
2021/08/12 11:28:50;;;;;;;0.10;0.10;;;;;;;28.55;48.78;99367.84;5151659;27;20474;-63
2021/08/12 11:31:20;;;;;;;0.10;0.10;;;;;;;28.51;48.89;99362.06;5151870;27;20046;-64
2021/08/12 11:33:46;;;;;;;0.10;0.10;;;;;;;28.50;48.72;99365.78;5151654;27;20319;-64
2021/08/12 11:36:17;;;;;;;0.10;0.10;;;;;;;28.52;48.74;99352.16;5152015;27;20308;-64
2021/08/12 11:38:50;;;;;;;0.10;0.10;;;;;;;28.50;48.75;99352.34;5151736;27;20129;-63
2021/08/12 11:41:23;;;;;;;0.10;0.10;;;;;;;28.55;48.58;99351.72;5152575;27;20053;-62
2021/08/12 11:43:51;;;;;;;0.20;0.20;;;;;;;28.55;48.55;99351.72;5083334;27;20137;-62
2021/08/12 11:46:18;;;;;;;0.10;0.10;;;;;;;28.49;48.62;99349.88;5151651;27;20042;-63
2021/08/12 11:48:44;;;;;;;0.40;0.40;;;;;;;28.44;48.87;99356.72;5132979;27;20134;-66
2021/08/12 11:51:10;;;;;;;0.20;0.20;;;;;;;28.40;48.96;99354.69;5151278;27;20052;-62
2021/08/12 11:53:40;;;;;;;0.10;0.10;;;;;;;28.41;48.88;99357.13;5151462;27;20057;-64
2021/08/12 11:56:20;;;;;;;0.22;0.22;;;;;;;28.34;48.99;99342.06;5116298;27;20047;-63
2021/08/12 11:58:56;;;;;;;0.20;0.20;;;;;;;28.37;49.14;99349.72;5133101;27;20069;-61
2021/08/12 12:01:25;;;;;;;0.30;0.30;;;;;;;28.35;49.15;99351.78;5135128;27;20070;-63
2021/08/12 12:04:01;;;;;;;0.10;0.10;;;;;;;28.40;49.10;99352.00;5151181;27;20054;-66
2021/08/12 12:06:29;;;;;;;0.22;0.22;;;;;;;28.36;49.12;99346.22;5151157;27;20054;-65
2021/08/12 12:08:55;;;;;;;0.10;0.10;;;;;;;28.33;49.02;99351.19;5150166;27;20532;-65
2021/08/12 12:11:21;;;;;;;0.20;0.20;;;;;;;28.24;49.13;99333.66;5151283;27;20039;-63